Cmb Ariane — VRIT7 — position and weather

sailwx.info

Track history (hours):
 
Tides and Currents Weather Stations Pressure Air Temp Water Temp Dewpoint Dewpoint Depression Visibility Wind Speed Wind Dir Waves Ship Positions

Cmb Ariane

Last reported at 2018-Jan-19 19:30 UTC. Time now 2018-Jan-19 19:42 UTC.
Position N 36°09' W 005°04'.

Length 180 m; draft 8.5 m.

Type: Cargo ship. MMSI: 477229600.

Date/timePositionNaut miles runAvg speedWind from/ knotsBaromVisibWave heightAir tempDewpointWater temp
2018-Jan-19 19:30N 36°09' W 005°04'3 5.4
2018-Jan-19 19:00N 36°09' W 005°01'1 1.6
2018-Jan-19 18:30N 36°09' W 005°02'1 1.6
2018-Jan-19 18:00N 36°09' W 005°03'1 1.7
2018-Jan-19 17:30N 36°09' W 005°04'1 1.8
2018-Jan-19 17:00N 36°09' W 005°05'1 1.4
2018-Jan-19 16:30N 36°08' W 005°06'1 1.4
2018-Jan-19 16:00N 36°08' W 005°07'1 1.1
2018-Jan-19 15:30N 36°08' W 005°07'0 1.0
2018-Jan-19 15:00N 36°08' W 005°08'4 7.0
2018-Jan-19 14:30N 36°09' W 005°12'1 1.3
2018-Jan-19 14:00N 36°08' W 005°12'1 1.2
2018-Jan-19 13:30N 36°08' W 005°11'0 0.8
2018-Jan-19 13:00N 36°08' W 005°11'0 0.9
2018-Jan-19 12:30N 36°08' W 005°10'1 1.1
2018-Jan-19 12:00N 36°07' W 005°10'0 0.9
2018-Jan-19 11:30N 36°07' W 005°09'0 0.9
2018-Jan-19 11:00N 36°07' W 005°09'0 1.0
2018-Jan-19 10:30N 36°08' W 005°08'0 0.8
2018-Jan-19 10:00N 36°08' W 005°08'0 0.8
2018-Jan-19 09:30N 36°08' W 005°07'0 0.6
2018-Jan-19 09:00N 36°08' W 005°07'0 0.8
2018-Jan-19 08:30N 36°08' W 005°06'0 0.7
2018-Jan-19 08:00N 36°08' W 005°06'4 8.7
2018-Jan-19 07:29N 36°08' W 005°01'2 5.0
2018-Jan-19 07:00N 36°08' W 004°58'1 1.4
2018-Jan-19 06:30N 36°08' W 004°58'1 1.3
2018-Jan-19 05:53N 36°08' W 004°59'1 1.4
2018-Jan-19 05:30N 36°08' W 005°00'2 3.3
2018-Jan-19 05:00N 36°08' W 005°02'3 5.6
2018-Jan-19 04:28N 36°05' W 005°01'  
Track history (hours):
 
Tides and Currents Weather Stations Pressure Air Temp Water Temp Dewpoint Dewpoint Depression Visibility Wind Speed Wind Dir Waves Ship Positions

Cmb Ariane

Last reported at 2018-Jan-19 19:30 UTC. Time now 2018-Jan-19 19:42 UTC.
Position N 36°09' W 005°04'.

Length 180 m; draft 8.5 m.

Type: Cargo ship. MMSI: 477229600.

Date/timePositionNaut miles runAvg speedWind from/ knotsBaromVisibWave heightAir tempDewpointWater temp
2018-Jan-19 19:30N 36°09' W 005°04'3 5.4
2018-Jan-19 19:00N 36°09' W 005°01'1 1.6
2018-Jan-19 18:30N 36°09' W 005°02'1 1.6
2018-Jan-19 18:00N 36°09' W 005°03'1 1.7
2018-Jan-19 17:30N 36°09' W 005°04'1 1.8
2018-Jan-19 17:00N 36°09' W 005°05'1 1.4
2018-Jan-19 16:30N 36°08' W 005°06'1 1.4
2018-Jan-19 16:00N 36°08' W 005°07'1 1.1
2018-Jan-19 15:30N 36°08' W 005°07'0 1.0
2018-Jan-19 15:00N 36°08' W 005°08'4 7.0
2018-Jan-19 14:30N 36°09' W 005°12'1 1.3
2018-Jan-19 14:00N 36°08' W 005°12'1 1.2
2018-Jan-19 13:30N 36°08' W 005°11'0 0.8
2018-Jan-19 13:00N 36°08' W 005°11'0 0.9
2018-Jan-19 12:30N 36°08' W 005°10'1 1.1
2018-Jan-19 12:00N 36°07' W 005°10'0 0.9
2018-Jan-19 11:30N 36°07' W 005°09'0 0.9
2018-Jan-19 11:00N 36°07' W 005°09'0 1.0
2018-Jan-19 10:30N 36°08' W 005°08'0 0.8
2018-Jan-19 10:00N 36°08' W 005°08'0 0.8
2018-Jan-19 09:30N 36°08' W 005°07'0 0.6
2018-Jan-19 09:00N 36°08' W 005°07'0 0.8
2018-Jan-19 08:30N 36°08' W 005°06'0 0.7
2018-Jan-19 08:00N 36°08' W 005°06'4 8.7
2018-Jan-19 07:29N 36°08' W 005°01'2 5.0
2018-Jan-19 07:00N 36°08' W 004°58'1 1.4
2018-Jan-19 06:30N 36°08' W 004°58'1 1.3
2018-Jan-19 05:53N 36°08' W 004°59'1 1.4
2018-Jan-19 05:30N 36°08' W 005°00'2 3.3
2018-Jan-19 05:00N 36°08' W 005°02'3 5.6
2018-Jan-19 04:28N 36°05' W 005°01'  

Dump ship's entire track history